Time;durP1;ratioP1;P1;durP2;ratioP2;P2;SDS_P1;SDS_P2;PMS_P1;PMS_P2;Temp;Humidity;BMP_temperature;BMP_pressure;BME280_temperature;BME280_humidity;BME280_pressure;Samples;Min_cycle;Max_cycle;Signal;HPM_P1;HPM_P2
2022/07/07 00:00:21;;;;;;;3.15;0.80;;;17.70;82.20;;;;;;5028861;28;20030;-86
2022/07/07 00:02:48;;;;;;;2.42;1.15;;;17.70;81.80;;;;;;5017935;28;20053;-86
2022/07/07 00:05:14;;;;;;;4.55;1.00;;;17.70;81.50;;;;;;5025919;28;20026;-86
2022/07/07 00:07:39;;;;;;;2.85;1.00;;;17.70;81.50;;;;;;5022185;28;20087;-85
2022/07/07 00:10:05;;;;;;;2.38;0.90;;;17.70;82.00;;;;;;5032244;28;20048;-85
2022/07/07 00:12:31;;;;;;;2.60;0.80;;;17.70;82.30;;;;;;5015306;28;20026;-86
2022/07/07 00:14:57;;;;;;;3.63;0.93;;;17.60;83.10;;;;;;5029097;28;20489;-87
2022/07/07 00:17:22;;;;;;;2.53;0.95;;;17.60;83.70;;;;;;5019736;28;20017;-87
2022/07/07 00:19:48;;;;;;;3.58;1.20;;;17.60;83.60;;;;;;5021540;28;20045;-87
2022/07/07 00:22:14;;;;;;;6.90;1.13;;;17.60;84.10;;;;;;5032526;28;20394;-85
2022/07/07 00:24:39;;;;;;;1.48;0.93;;;17.50;84.80;;;;;;5038087;28;20037;-85
2022/07/07 00:27:05;;;;;;;1.77;0.95;;;17.40;85.50;;;;;;5024678;28;20104;-87
2022/07/07 00:29:30;;;;;;;2.78;1.00;;;17.50;85.40;;;;;;5031951;28;20029;-87
2022/07/07 00:31:56;;;;;;;4.38;1.40;;;17.50;85.00;;;;;;5030665;28;20029;-89
2022/07/07 00:34:22;;;;;;;3.05;1.10;;;17.60;84.40;;;;;;5023250;28;20087;-87
2022/07/07 00:36:47;;;;;;;2.03;0.90;;;17.60;84.20;;;;;;5022606;28;20060;-87
2022/07/07 00:39:13;;;;;;;4.18;1.20;;;17.60;84.40;;;;;;5033486;28;20030;-88
2022/07/07 00:41:39;;;;;;;3.20;1.05;;;17.70;84.00;;;;;;5028619;28;20092;-89
2022/07/07 00:44:06;;;;;;;4.50;1.17;;;17.70;83.90;;;;;;5031961;28;20025;-87
2022/07/07 00:46:46;;;;;;;2.13;1.02;;;17.70;84.10;;;;;;5021772;28;20475;-89
2022/07/07 00:49:13;;;;;;;2.57;0.80;;;17.70;85.00;;;;;;5024517;28;20075;-88
2022/07/07 00:51:41;;;;;;;4.38;1.02;;;17.60;84.80;;;;;;5039387;28;20072;-88
2022/07/07 00:54:08;;;;;;;2.88;0.90;;;17.60;84.30;;;;;;5024940;28;20029;-89
2022/07/07 00:56:34;;;;;;;2.10;1.10;;;17.70;84.40;;;;;;5019639;28;20479;-89
2022/07/07 00:59:02;;;;;;;3.45;1.25;;;17.60;84.90;;;;;;5020457;28;20022;-91
2022/07/07 01:01:29;;;;;;;3.45;1.00;;;17.70;84.80;;;;;;5027370;28;20053;-88
2022/07/07 01:03:55;;;;;;;2.83;1.05;;;17.70;84.20;;;;;;5040709;28;20116;-89
2022/07/07 01:06:21;;;;;;;1.48;0.90;;;17.70;84.20;;;;;;5023347;28;20045;-89
2022/07/07 01:08:47;;;;;;;1.33;1.20;;;17.70;84.50;;;;;;5020288;28;20029;-89
2022/07/07 01:11:12;;;;;;;4.05;1.00;;;17.70;84.70;;;;;;5018494;28;20033;-87
2022/07/07 01:13:39;;;;;;;3.72;1.00;;;17.70;84.80;;;;;;5020534;28;20029;-88
2022/07/07 01:16:04;;;;;;;1.58;1.02;;;17.60;85.30;;;;;;5033118;28;20454;-88
2022/07/07 01:18:30;;;;;;;1.02;0.93;;;17.60;85.90;;;;;;5039799;28;20087;-88
2022/07/07 01:20:59;;;;;;;2.28;1.00;;;17.60;86.40;;;;;;5022669;28;20037;-87
2022/07/07 01:23:25;;;;;;;4.47;1.00;;;17.60;86.50;;;;;;5031854;28;20061;-87
2022/07/07 01:25:51;;;;;;;3.38;1.10;;;17.60;86.90;;;;;;5030521;28;20056;-87
2022/07/07 01:28:16;;;;;;;2.97;1.10;;;17.60;87.30;;;;;;5025281;28;20072;-87
2022/07/07 01:30:42;;;;;;;1.63;1.20;;;17.50;87.70;;;;;;5020885;28;20030;-87
2022/07/07 01:33:07;;;;;;;1.33;0.93;;;17.50;88.00;;;;;;5030067;28;20022;-88
2022/07/07 01:35:33;;;;;;;1.23;1.10;;;17.50;88.30;;;;;;5016980;28;20030;-87
2022/07/07 01:37:58;;;;;;;2.97;1.10;;;17.50;88.20;;;;;;5016139;28;20034;-88
2022/07/07 01:40:24;;;;;;;1.75;1.00;;;17.40;88.20;;;;;;5016531;28;20025;-87
2022/07/07 01:42:50;;;;;;;1.00;0.88;;;17.40;88.30;;;;;;5016194;28;20041;-88
2022/07/07 01:45:15;;;;;;;2.03;1.23;;;17.50;88.30;;;;;;5024810;28;20037;-88
2022/07/07 01:47:41;;;;;;;3.60;1.23;;;17.40;88.60;;;;;;5016350;28;20495;-88
2022/07/07 01:50:07;;;;;;;3.58;1.08;;;17.50;88.60;;;;;;5028329;28;20057;-88
2022/07/07 01:52:33;;;;;;;4.63;1.27;;;17.50;88.40;;;;;;5020184;28;20030;-88
2022/07/07 01:54:58;;;;;;;2.72;1.20;;;17.40;89.30;;;;;;5035541;28;20093;-88
2022/07/07 01:57:24;;;;;;;1.33;0.93;;;17.40;89.10;;;;;;5026896;28;20030;-87
2022/07/07 01:59:49;;;;;;;4.10;1.13;;;17.40;89.20;;;;;;5015646;28;20030;-87
2022/07/07 02:02:15;;;;;;;2.38;1.08;;;17.40;89.00;;;;;;5028724;28;20033;-87
2022/07/07 02:04:41;;;;;;;1.50;0.90;;;17.40;88.30;;;;;;5036370;28;20033;-87
2022/07/07 02:07:07;;;;;;;4.32;1.15;;;17.30;87.80;;;;;;5030763;28;20025;-88
2022/07/07 02:09:32;;;;;;;3.40;1.40;;;17.30;87.90;;;;;;5024097;28;20451;-87
2022/07/07 02:11:58;;;;;;;2.38;0.98;;;17.20;88.50;;;;;;5034753;28;20017;-87
2022/07/07 02:14:24;;;;;;;2.60;1.20;;;17.20;88.30;;;;;;5034744;28;20026;-86
2022/07/07 02:16:49;;;;;;;2.83;1.10;;;17.10;88.10;;;;;;5035115;28;20033;-86
2022/07/07 02:19:15;;;;;;;1.17;0.93;;;17.10;87.70;;;;;;5034612;28;20032;-86
2022/07/07 02:21:41;;;;;;;1.20;1.05;;;17.10;87.80;;;;;;5034929;28;20120;-86
2022/07/07 02:24:06;;;;;;;2.30;0.80;;;17.00;88.50;;;;;;5034182;28;20056;-87
2022/07/07 02:26:33;;;;;;;3.22;1.00;;;16.90;88.30;;;;;;5017178;28;20022;-86
2022/07/07 02:29:00;;;;;;;2.55;0.80;;;17.00;88.10;;;;;;5016031;28;20060;-86
2022/07/07 02:31:25;;;;;;;3.15;1.10;;;17.00;88.00;;;;;;5014903;28;20156;-86
2022/07/07 02:33:51;;;;;;;5.72;1.58;;;17.00;87.70;;;;;;5025111;28;20067;-86
2022/07/07 02:36:19;;;;;;;3.13;0.90;;;16.90;87.80;;;;;;5033657;28;20033;-87
2022/07/07 02:38:45;;;;;;;2.55;0.90;;;16.90;88.10;;;;;;5015561;28;20030;-86
2022/07/07 02:41:11;;;;;;;2.20;1.00;;;16.90;87.10;;;;;;5015482;28;20113;-86
2022/07/07 02:43:37;;;;;;;2.60;0.90;;;16.80;87.20;;;;;;5015729;28;20460;-87
2022/07/07 02:46:03;;;;;;;2.05;0.98;;;16.80;87.30;;;;;;5014857;28;20030;-89
2022/07/07 02:48:29;;;;;;;3.10;1.10;;;16.80;87.60;;;;;;5016258;28;20057;-86
2022/07/07 02:50:55;;;;;;;6.00;1.30;;;16.70;87.60;;;;;;5015082;28;20068;-86
2022/07/07 02:53:21;;;;;;;2.35;1.20;;;16.70;87.70;;;;;;5013920;28;20025;-87
2022/07/07 02:55:47;;;;;;;2.80;0.90;;;16.80;87.80;;;;;;5014891;28;20057;-87
2022/07/07 02:58:19;;;;;;;3.63;1.10;;;16.70;87.70;;;;;;5013757;28;20026;-87
2022/07/07 03:00:47;;;;;;;2.22;0.98;;;16.80;87.70;;;;;;5033302;28;20068;-86
2022/07/07 03:03:13;;;;;;;1.63;0.80;;;16.70;87.50;;;;;;5028930;28;20022;-87
2022/07/07 03:05:38;;;;;;;2.15;0.90;;;16.70;87.40;;;;;;5014440;28;20036;-87
2022/07/07 03:08:04;;;;;;;2.25;1.05;;;16.70;87.30;;;;;;5026561;28;20116;-88
2022/07/07 03:10:30;;;;;;;2.95;1.20;;;16.60;87.30;;;;;;5017411;28;20033;-86
2022/07/07 03:12:56;;;;;;;2.13;0.93;;;16.60;87.50;;;;;;5033479;28;20022;-86
2022/07/07 03:15:21;;;;;;;3.13;1.20;;;16.60;87.50;;;;;;5033486;28;20026;-87
2022/07/07 03:17:49;;;;;;;1.83;1.23;;;16.60;87.90;;;;;;5033988;28;20455;-86
2022/07/07 03:20:15;;;;;;;1.67;1.15;;;16.50;88.10;;;;;;5033981;28;20138;-87
2022/07/07 03:22:42;;;;;;;4.15;1.10;;;16.50;88.50;;;;;;5032830;28;20105;-87
2022/07/07 03:25:09;;;;;;;1.83;1.08;;;16.50;88.50;;;;;;5020781;28;20031;-87
2022/07/07 03:27:35;;;;;;;3.15;1.10;;;16.50;88.60;;;;;;5033556;28;20040;-85
2022/07/07 03:30:03;;;;;;;3.53;1.00;;;16.50;88.90;;;;;;5033547;28;20025;-88
2022/07/07 03:32:29;;;;;;;3.92;1.45;;;16.50;89.00;;;;;;5033159;28;20025;-87
2022/07/07 03:34:55;;;;;;;1.95;1.20;;;16.40;89.20;;;;;;5034630;28;20430;-86
2022/07/07 03:37:20;;;;;;;2.67;1.33;;;16.40;89.50;;;;;;5034116;28;20103;-86
2022/07/07 03:39:46;;;;;;;3.08;1.45;;;16.30;89.70;;;;;;5034407;28;20029;-85
2022/07/07 03:42:12;;;;;;;2.35;1.10;;;16.30;90.00;;;;;;5034028;28;20040;-86
2022/07/07 03:44:37;;;;;;;2.35;1.10;;;16.30;90.10;;;;;;5022542;28;20066;-87
2022/07/07 03:47:03;;;;;;;2.25;1.13;;;16.30;90.10;;;;;;5014038;28;20065;-88
2022/07/07 03:49:29;;;;;;;2.92;1.23;;;16.30;90.20;;;;;;5013695;28;20034;-87
2022/07/07 03:51:55;;;;;;;3.65;1.30;;;16.20;90.30;;;;;;5026480;28;20037;-87
2022/07/07 03:54:21;;;;;;;2.35;1.13;;;16.30;90.30;;;;;;5032985;28;20030;-86
2022/07/07 03:56:46;;;;;;;2.63;1.10;;;16.20;90.40;;;;;;5032862;28;20029;-86
2022/07/07 03:59:12;;;;;;;3.03;1.00;;;16.20;90.40;;;;;;5032940;28;20033;-86
2022/07/07 04:01:38;;;;;;;8.00;1.70;;;16.30;90.50;;;;;;5023756;28;20038;-86
2022/07/07 04:04:06;;;;;;;3.60;1.10;;;16.30;90.60;;;;;;5013399;28;20092;-88
2022/07/07 04:06:32;;;;;;;4.32;1.20;;;16.20;90.60;;;;;;5015128;28;20096;-86
2022/07/07 04:08:58;;;;;;;3.72;1.25;;;16.20;90.60;;;;;;5032980;28;20485;-87
2022/07/07 04:11:24;;;;;;;3.40;1.30;;;16.20;90.70;;;;;;5033421;28;20029;-87
2022/07/07 04:13:49;;;;;;;4.55;1.00;;;16.30;90.70;;;;;;5032992;28;20051;-87
2022/07/07 04:16:15;;;;;;;2.10;1.25;;;16.30;90.60;;;;;;5032915;28;20052;-87
2022/07/07 04:18:41;;;;;;;2.17;1.30;;;16.30;90.70;;;;;;5033526;28;20497;-85
2022/07/07 04:21:07;;;;;;;3.00;1.20;;;16.30;90.60;;;;;;5032737;28;20473;-87
2022/07/07 04:23:32;;;;;;;2.78;1.17;;;16.30;90.70;;;;;;5034256;28;20036;-86
2022/07/07 04:25:58;;;;;;;1.95;1.35;;;16.30;90.80;;;;;;5033865;28;20063;-86
2022/07/07 04:28:24;;;;;;;1.52;1.13;;;16.30;90.70;;;;;;5032965;28;20026;-86
2022/07/07 04:30:49;;;;;;;2.85;1.13;;;16.30;90.70;;;;;;5030890;28;20113;-86
2022/07/07 04:33:15;;;;;;;1.58;1.10;;;16.30;90.70;;;;;;5023269;28;20040;-87
2022/07/07 04:35:40;;;;;;;2.75;1.30;;;16.30;90.70;;;;;;5033045;28;20529;-87
2022/07/07 04:38:06;;;;;;;1.17;1.05;;;16.40;90.70;;;;;;5032577;28;20455;-88
2022/07/07 04:40:32;;;;;;;3.00;1.35;;;16.40;90.70;;;;;;5016073;28;20107;-87
2022/07/07 04:42:57;;;;;;;5.65;1.50;;;16.40;90.70;;;;;;5017975;28;20022;-87
2022/07/07 04:45:23;;;;;;;3.97;1.42;;;16.40;90.80;;;;;;5032384;28;20041;-87
2022/07/07 04:47:49;;;;;;;4.75;1.50;;;16.40;90.90;;;;;;5020878;28;20050;-87
2022/07/07 04:50:14;;;;;;;6.55;1.42;;;16.50;90.90;;;;;;5027167;28;20033;-87
2022/07/07 04:52:40;;;;;;;3.30;1.65;;;16.60;91.00;;;;;;5015503;28;20026;-87
2022/07/07 04:55:07;;;;;;;2.28;1.50;;;16.60;91.00;;;;;;5026634;28;20045;-88
2022/07/07 04:57:33;;;;;;;2.72;1.33;;;16.50;91.20;;;;;;5020925;28;20131;-87
2022/07/07 04:59:59;;;;;;;5.40;1.67;;;16.60;91.30;;;;;;5033183;28;20198;-87
2022/07/07 05:02:25;;;;;;;4.38;1.92;;;16.60;91.30;;;;;;5033189;28;20059;-87
2022/07/07 05:04:51;;;;;;;6.47;1.63;;;16.60;91.20;;;;;;5032552;28;20100;-87
2022/07/07 05:07:18;;;;;;;3.30;1.58;;;16.70;91.00;;;;;;5024526;28;20435;-87
2022/07/07 05:09:44;;;;;;;2.67;1.50;;;16.70;90.90;;;;;;5026057;28;20493;-88
2022/07/07 05:12:10;;;;;;;7.60;1.30;;;16.70;91.10;;;;;;5021738;28;20034;-88
2022/07/07 05:14:35;;;;;;;3.25;1.50;;;16.80;90.70;;;;;;5015645;28;20029;-88
2022/07/07 05:17:01;;;;;;;5.00;1.27;;;16.80;90.60;;;;;;5016550;28;20068;-89
2022/07/07 05:19:27;;;;;;;3.03;1.23;;;16.80;90.50;;;;;;5016102;28;20084;-87
2022/07/07 05:21:53;;;;;;;3.22;1.63;;;16.80;90.50;;;;;;5016378;28;20026;-86
2022/07/07 05:24:19;;;;;;;2.28;1.20;;;16.80;90.50;;;;;;5016942;28;20026;-86
2022/07/07 05:26:45;;;;;;;6.20;1.35;;;16.80;90.30;;;;;;5016038;28;20029;-86
2022/07/07 05:29:11;;;;;;;12.75;1.60;;;16.90;90.30;;;;;;5016021;28;20029;-86
2022/07/07 05:31:36;;;;;;;3.67;1.60;;;16.90;90.60;;;;;;5024586;28;20051;-85
2022/07/07 05:34:02;;;;;;;3.17;1.25;;;16.90;90.40;;;;;;5030320;28;20025;-86
2022/07/07 05:36:28;;;;;;;3.08;1.50;;;16.90;90.30;;;;;;5026218;28;20026;-85
2022/07/07 05:38:53;;;;;;;4.85;1.48;;;16.90;89.40;;;;;;5026350;28;20038;-86
2022/07/07 05:41:19;;;;;;;4.30;1.60;;;17.00;89.20;;;;;;5022213;28;20474;-86
2022/07/07 05:43:44;;;;;;;4.20;1.50;;;17.00;89.40;;;;;;5027545;28;20025;-87
2022/07/07 05:46:11;;;;;;;8.07;2.35;;;17.00;89.20;;;;;;5021181;28;20026;-85
2022/07/07 05:48:37;;;;;;;3.53;1.52;;;17.20;89.30;;;;;;5025141;28;20025;-86
2022/07/07 05:51:03;;;;;;;5.57;1.20;;;17.20;88.80;;;;;;5025564;28;20033;-87
2022/07/07 05:53:29;;;;;;;3.08;1.20;;;17.20;88.50;;;;;;5024405;28;20030;-85
2022/07/07 05:55:56;;;;;;;2.60;1.25;;;17.20;88.40;;;;;;5027967;28;20018;-86
2022/07/07 05:58:22;;;;;;;7.82;2.33;;;17.20;88.50;;;;;;5019163;28;20032;-86
2022/07/07 06:00:48;;;;;;;5.70;1.55;;;17.20;88.50;;;;;;5028239;28;20034;-86
2022/07/07 06:03:13;;;;;;;5.47;1.40;;;17.30;88.60;;;;;;5023466;28;20044;-86
2022/07/07 06:05:40;;;;;;;2.47;1.58;;;17.30;89.50;;;;;;5026549;28;20053;-86
2022/07/07 06:08:06;;;;;;;3.25;1.27;;;17.40;88.70;;;;;;5025677;28;20099;-85
2022/07/07 06:10:32;;;;;;;4.93;1.40;;;17.50;89.10;;;;;;5024547;28;20065;-86
2022/07/07 06:12:58;;;;;;;6.80;1.30;;;17.60;88.90;;;;;;5021827;28;20029;-86
2022/07/07 06:15:24;;;;;;;3.72;1.20;;;17.60;89.00;;;;;;5024434;28;20029;-86
2022/07/07 06:17:49;;;;;;;7.68;1.20;;;17.60;89.40;;;;;;5026570;28;20030;-86
2022/07/07 06:20:15;;;;;;;2.67;1.02;;;17.70;89.40;;;;;;5028680;28;20033;-86
2022/07/07 06:22:41;;;;;;;3.53;1.00;;;17.70;89.00;;;;;;5027415;28;20116;-86
2022/07/07 06:25:10;;;;;;;5.40;1.60;;;17.80;89.20;;;;;;5025153;28;20018;-87
2022/07/07 06:27:36;;;;;;;3.03;1.52;;;17.90;88.70;;;;;;5027600;28;20029;-87
2022/07/07 06:30:03;;;;;;;2.92;2.00;;;18.00;88.20;;;;;;5028428;28;20459;-88
2022/07/07 06:32:29;;;;;;;5.53;1.40;;;18.00;88.50;;;;;;5027213;28;20049;-87
2022/07/07 06:34:55;;;;;;;2.47;1.30;;;18.00;88.60;;;;;;5025499;28;20498;-86
2022/07/07 06:37:21;;;;;;;2.00;1.35;;;18.10;88.20;;;;;;5028242;28;20045;-87
2022/07/07 06:39:47;;;;;;;4.32;1.60;;;18.10;87.80;;;;;;5023138;28;20084;-87
2022/07/07 06:42:12;;;;;;;4.35;1.50;;;18.20;88.00;;;;;;5025380;28;20026;-86
2022/07/07 06:44:38;;;;;;;5.30;1.38;;;18.20;88.10;;;;;;5027740;28;20569;-86
2022/07/07 06:47:04;;;;;;;4.25;1.25;;;18.20;88.10;;;;;;5026330;28;20050;-85
2022/07/07 06:49:30;;;;;;;2.78;1.20;;;18.20;88.00;;;;;;5025534;28;20033;-85
2022/07/07 06:51:55;;;;;;;4.32;1.10;;;18.20;88.20;;;;;;5025660;28;20025;-86
2022/07/07 06:54:21;;;;;;;4.28;1.25;;;18.10;88.20;;;;;;5027759;28;20025;-88
2022/07/07 06:56:47;;;;;;;4.05;1.30;;;18.10;89.00;;;;;;5026102;28;20463;-89
2022/07/07 06:59:13;;;;;;;1.85;1.15;;;18.00;88.90;;;;;;5028364;28;20041;-87
2022/07/07 07:01:39;;;;;;;3.40;1.15;;;17.90;89.20;;;;;;5025527;28;20036;-85
2022/07/07 07:04:07;;;;;;;2.58;1.35;;;18.00;89.60;;;;;;5022760;28;20481;-87
2022/07/07 07:06:33;;;;;;;2.35;1.38;;;18.00;89.80;;;;;;5025627;28;20021;-85
2022/07/07 07:08:59;;;;;;;3.40;1.70;;;17.90;90.00;;;;;;5024214;28;20021;-86
2022/07/07 07:11:26;;;;;;;5.50;2.17;;;17.90;90.20;;;;;;5026056;28;20079;-85
2022/07/07 07:13:51;;;;;;;8.57;2.03;;;18.00;90.30;;;;;;5027164;28;20029;-87
2022/07/07 07:16:18;;;;;;;12.02;3.97;;;18.00;90.20;;;;;;5021086;28;20034;-87
2022/07/07 07:18:45;;;;;;;6.72;3.15;;;18.10;90.30;;;;;;5024597;28;20030;-86
2022/07/07 07:21:11;;;;;;;6.57;2.42;;;18.10;90.30;;;;;;5030438;28;20128;-87
2022/07/07 07:23:37;;;;;;;5.30;1.70;;;18.20;90.50;;;;;;5017880;28;20030;-86
2022/07/07 07:26:04;;;;;;;3.55;1.52;;;18.30;90.20;;;;;;5026168;28;20026;-85
2022/07/07 07:28:30;;;;;;;3.17;1.75;;;18.40;90.10;;;;;;5026213;28;20115;-85
2022/07/07 07:30:55;;;;;;;4.38;1.40;;;18.50;90.10;;;;;;5025011;28;20017;-86
2022/07/07 07:33:21;;;;;;;5.95;1.40;;;18.60;90.00;;;;;;5023349;28;20053;-86
2022/07/07 07:35:47;;;;;;;2.95;1.35;;;18.60;89.90;;;;;;5024980;28;20037;-85
2022/07/07 07:38:13;;;;;;;1.52;1.15;;;18.60;89.80;;;;;;5023214;28;20036;-85
2022/07/07 07:40:38;;;;;;;8.70;1.67;;;18.70;89.50;;;;;;5022518;28;20459;-85
2022/07/07 07:43:04;;;;;;;2.47;1.20;;;18.80;89.30;;;;;;5020548;28;20461;-86
2022/07/07 07:45:30;;;;;;;6.70;1.30;;;18.70;89.60;;;;;;5026056;28;20032;-85
2022/07/07 07:47:56;;;;;;;1.95;1.10;;;18.60;89.60;;;;;;5023167;28;20123;-85
2022/07/07 07:50:23;;;;;;;2.65;1.50;;;18.50;90.00;;;;;;5027182;28;20057;-86
2022/07/07 07:52:50;;;;;;;3.47;1.83;;;18.40;90.10;;;;;;5020743;28;20030;-86
2022/07/07 07:55:17;;;;;;;3.47;1.48;;;18.40;90.20;;;;;;5024322;28;20026;-85
2022/07/07 07:57:44;;;;;;;3.13;1.20;;;18.40;90.30;;;;;;5023173;28;20033;-85
2022/07/07 08:00:12;;;;;;;2.60;1.02;;;18.40;90.30;;;;;;5019134;28;20120;-85
2022/07/07 08:02:39;;;;;;;2.85;1.33;;;18.40;90.50;;;;;;5029160;28;20034;-85
2022/07/07 08:05:05;;;;;;;5.57;1.48;;;18.40;90.50;;;;;;5029091;28;20026;-86
2022/07/07 08:07:32;;;;;;;1.88;1.30;;;18.50;90.30;;;;;;5023998;28;20026;-84
2022/07/07 08:09:59;;;;;;;5.63;1.50;;;18.40;90.40;;;;;;5016463;28;20036;-85
2022/07/07 08:12:24;;;;;;;4.50;1.33;;;18.40;90.50;;;;;;5015552;28;20029;-85
2022/07/07 08:14:50;;;;;;;3.28;1.60;;;18.40;90.60;;;;;;5030558;28;20104;-86
2022/07/07 08:17:17;;;;;;;3.60;1.27;;;18.60;90.60;;;;;;5017141;28;20467;-87
2022/07/07 08:19:42;;;;;;;3.50;1.25;;;18.50;90.70;;;;;;5029705;28;20037;-86
2022/07/07 08:22:08;;;;;;;4.30;1.45;;;18.50;90.90;;;;;;5029107;28;20029;-86
2022/07/07 08:24:34;;;;;;;4.57;1.40;;;18.40;91.00;;;;;;5016460;28;20467;-86
2022/07/07 08:27:00;;;;;;;6.82;1.80;;;18.50;91.40;;;;;;5019566;28;20028;-86
2022/07/07 08:29:26;;;;;;;7.72;2.05;;;18.50;91.60;;;;;;5016418;28;20471;-87
2022/07/07 08:31:51;;;;;;;2.83;1.50;;;18.60;91.70;;;;;;5015932;28;20030;-86
2022/07/07 08:34:17;;;;;;;3.70;1.70;;;18.70;91.70;;;;;;5015713;28;20368;-86
2022/07/07 08:36:43;;;;;;;5.22;1.55;;;18.80;91.50;;;;;;5017690;28;20475;-86
2022/07/07 08:39:08;;;;;;;4.28;1.65;;;18.90;91.80;;;;;;5012050;28;20478;-86
2022/07/07 08:41:34;;;;;;;2.58;1.40;;;18.90;91.10;;;;;;5017315;28;20037;-86
2022/07/07 08:44:00;;;;;;;6.25;1.40;;;19.00;91.10;;;;;;5021471;28;20033;-87
2022/07/07 08:46:26;;;;;;;4.78;1.38;;;19.00;90.90;;;;;;5019056;28;20052;-87
2022/07/07 08:48:53;;;;;;;2.63;1.33;;;19.00;91.00;;;;;;5023977;28;20029;-87
2022/07/07 08:51:21;;;;;;;2.13;1.30;;;19.10;91.00;;;;;;5034004;28;20022;-87
2022/07/07 08:53:47;;;;;;;2.60;1.50;;;19.30;90.70;;;;;;5034295;28;20021;-87
2022/07/07 08:56:16;;;;;;;5.10;1.40;;;19.40;90.70;;;;;;5032641;28;20442;-87
2022/07/07 08:58:42;;;;;;;1.98;1.33;;;19.50;90.70;;;;;;5019616;28;20054;-86
2022/07/07 09:01:08;;;;;;;5.50;1.27;;;19.30;90.60;;;;;;5019863;28;20056;-87
2022/07/07 09:03:35;;;;;;;4.93;1.35;;;19.20;90.80;;;;;;5020659;28;20029;-86
2022/07/07 09:06:01;;;;;;;7.18;1.45;;;19.10;91.10;;;;;;5019314;28;20029;-86
2022/07/07 09:08:30;;;;;;;2.45;1.40;;;19.10;91.20;;;;;;5020311;28;20524;-87
2022/07/07 09:10:56;;;;;;;4.45;1.40;;;19.30;91.10;;;;;;5033948;28;20143;-86
2022/07/07 09:13:25;;;;;;;7.70;1.65;;;19.60;90.90;;;;;;5018734;28;20026;-86
2022/07/07 09:16:00;;;;;;;4.20;1.50;;;19.80;90.60;;;;;;5019127;28;20022;-85
2022/07/07 09:18:30;;;;;;;3.00;1.58;;;20.00;90.50;;;;;;5019314;28;20057;-86
2022/07/07 09:20:56;;;;;;;4.30;1.95;;;20.10;90.20;;;;;;5028854;28;20022;-87
2022/07/07 09:23:22;;;;;;;10.25;2.30;;;20.10;90.50;;;;;;5018577;28;20565;-87
2022/07/07 09:25:48;;;;;;;7.97;1.80;;;20.10;90.60;;;;;;5018945;28;20116;-86
2022/07/07 09:28:14;;;;;;;5.82;1.70;;;20.20;90.40;;;;;;5018960;28;20492;-88
2022/07/07 09:30:43;;;;;;;5.38;1.50;;;20.20;90.30;;;;;;5021691;28;20117;-86
2022/07/07 09:33:24;;;;;;;7.40;1.70;;;20.20;90.40;;;;;;5019212;28;20029;-85
2022/07/07 09:38:40;;;;;;;4.47;1.50;;;20.20;90.40;;;;;;5020759;28;20033;-87
2022/07/07 09:41:13;;;;;;;5.90;1.55;;;20.20;90.60;;;;;;5031346;28;20056;-86
2022/07/07 09:43:49;;;;;;;7.93;2.35;;;20.10;90.70;;;;;;5019032;28;20448;-86
2022/07/07 09:46:27;;;;;;;2.72;1.17;;;20.00;90.90;;;;;;5019085;28;20028;-86
2022/07/07 09:48:58;;;;;;;4.03;1.83;;;20.10;91.00;;;;;;5032881;28;20026;-87
2022/07/07 09:51:34;;;;;;;3.10;1.30;;;20.10;91.20;;;;;;5027245;28;20030;-87
2022/07/07 09:54:07;;;;;;;3.72;1.48;;;20.10;91.30;;;;;;5028143;28;20429;-86
2022/07/07 09:56:44;;;;;;;4.38;1.58;;;20.20;91.30;;;;;;5021771;28;20032;-86
2022/07/07 09:59:13;;;;;;;4.68;1.77;;;20.30;91.10;;;;;;5018486;28;20087;-86
2022/07/07 10:01:40;;;;;;;2.40;1.58;;;20.30;91.00;;;;;;5018463;28;20034;-86
2022/07/07 10:04:08;;;;;;;2.72;1.35;;;20.50;91.00;;;;;;5019022;28;20029;-87
2022/07/07 10:06:37;;;;;;;3.28;1.20;;;20.60;90.90;;;;;;5018919;28;20032;-86
2022/07/07 10:09:05;;;;;;;4.65;1.45;;;20.80;90.60;;;;;;5021045;28;20029;-88
2022/07/07 10:11:42;;;;;;;3.58;1.52;;;20.90;90.50;;;;;;5032089;28;20049;-87
2022/07/07 10:14:16;;;;;;;4.82;1.40;;;21.00;90.70;;;;;;5031337;28;20033;-86
2022/07/07 10:16:45;;;;;;;4.47;1.40;;;21.10;90.60;;;;;;5030228;28;20059;-87
2022/07/07 10:19:13;;;;;;;5.28;1.33;;;21.10;90.50;;;;;;5030114;28;20030;-87
2022/07/07 10:21:45;;;;;;;4.22;1.33;;;21.00;90.50;;;;;;5031750;28;20026;-86
2022/07/07 10:24:11;;;;;;;2.35;1.50;;;20.90;90.50;;;;;;5031024;28;20034;-86
2022/07/07 10:26:42;;;;;;;2.85;1.45;;;20.80;90.90;;;;;;5022478;28;20037;-87
2022/07/07 10:29:09;;;;;;;3.60;1.40;;;20.80;90.70;;;;;;5018301;28;20029;-86
2022/07/07 10:31:36;;;;;;;4.28;1.50;;;20.80;90.70;;;;;;5023739;28;20121;-86
2022/07/07 10:34:11;;;;;;;5.85;1.55;;;20.80;90.80;;;;;;5031921;28;20565;-87
2022/07/07 10:36:49;;;;;;;4.70;1.45;;;20.80;90.80;;;;;;5019406;28;20026;-87
2022/07/07 10:39:15;;;;;;;4.32;1.50;;;20.80;90.80;;;;;;5018538;28;20041;-86
2022/07/07 10:41:48;;;;;;;2.70;1.20;;;20.90;90.70;;;;;;5032357;28;20061;-87
2022/07/07 10:44:19;;;;;;;4.32;1.13;;;20.90;90.80;;;;;;5024538;28;20022;-87
2022/07/07 10:46:58;;;;;;;4.78;1.45;;;21.00;91.00;;;;;;5028651;28;20049;-87
2022/07/07 10:49:39;;;;;;;2.33;1.30;;;20.90;90.80;;;;;;5021298;28;20029;-86
2022/07/07 10:52:23;;;;;;;3.05;1.20;;;20.90;90.50;;;;;;5031187;28;20045;-87
2022/07/07 10:54:51;;;;;;;3.75;1.40;;;20.90;90.60;;;;;;5028306;28;20034;-86
2022/07/07 10:57:26;;;;;;;6.97;1.45;;;20.90;90.40;;;;;;5018055;28;20104;-87
2022/07/07 11:00:09;;;;;;;5.13;1.58;;;21.00;91.10;;;;;;5025433;28;20052;-87
2022/07/07 11:02:47;;;;;;;3.15;1.20;;;21.10;91.10;;;;;;5029696;28;20128;-87
2022/07/07 11:05:13;;;;;;;2.30;1.38;;;21.20;91.00;;;;;;5025748;28;20053;-87
2022/07/07 11:07:39;;;;;;;2.50;1.30;;;21.30;90.40;;;;;;5018552;28;20104;-88
2022/07/07 11:10:10;;;;;;;5.88;1.35;;;21.30;90.30;;;;;;5028125;28;20061;-87
2022/07/07 11:12:48;;;;;;;2.38;1.40;;;21.40;89.30;;;;;;5020285;28;20026;-87
2022/07/07 11:15:27;;;;;;;3.65;1.27;;;21.40;88.70;;;;;;5017556;28;20110;-87
2022/07/07 11:17:52;;;;;;;3.88;1.20;;;21.50;89.10;;;;;;5025306;28;20026;-87
2022/07/07 11:20:20;;;;;;;2.50;1.08;;;21.60;89.30;;;;;;5029754;28;20033;-86
2022/07/07 11:22:48;;;;;;;2.47;1.17;;;21.60;88.40;;;;;;5030322;28;20531;-86
2022/07/07 11:25:17;;;;;;;4.20;1.50;;;21.70;89.00;;;;;;5016288;28;20022;-86
2022/07/07 11:27:43;;;;;;;4.25;1.00;;;21.80;88.90;;;;;;5027503;28;20026;-86
2022/07/07 11:30:09;;;;;;;2.08;1.02;;;21.80;88.40;;;;;;5016106;28;20473;-87
2022/07/07 11:32:39;;;;;;;3.13;1.13;;;21.70;87.00;;;;;;5018649;28;20502;-86
2022/07/07 11:35:09;;;;;;;3.53;1.20;;;21.70;86.90;;;;;;5017523;28;20033;-87
2022/07/07 11:37:39;;;;;;;1.90;0.80;;;21.80;86.60;;;;;;5016801;28;20064;-86
2022/07/07 11:40:22;;;;;;;2.35;1.10;;;21.80;86.40;;;;;;5015916;28;20080;-85
2022/07/07 11:42:48;;;;;;;1.50;0.75;;;21.90;86.20;;;;;;5019061;28;20034;-86
2022/07/07 11:45:25;;;;;;;3.38;1.20;;;22.00;86.20;;;;;;5015979;28;20077;-86
2022/07/07 11:47:52;;;;;;;4.55;1.20;;;21.90;86.10;;;;;;5025653;28;20042;-86
2022/07/07 11:50:18;;;;;;;1.20;0.90;;;21.90;86.90;;;;;;5029449;28;20045;-87
2022/07/07 11:52:52;;;;;;;4.32;1.00;;;22.00;87.10;;;;;;5027442;28;20025;-88
2022/07/07 11:55:19;;;;;;;12.45;6.00;;;22.00;87.30;;;;;;5014597;28;20113;-87
2022/07/07 11:58:03;;;;;;;8.45;4.60;;;21.90;87.70;;;;;;5016516;28;20029;-88
2022/07/07 12:00:30;;;;;;;2.70;1.60;;;21.90;87.80;;;;;;5029055;28;20445;-87
2022/07/07 12:02:58;;;;;;;1.95;1.10;;;21.90;88.10;;;;;;5027715;28;20049;-87
2022/07/07 12:05:31;;;;;;;1.40;1.23;;;22.00;87.50;;;;;;5028684;28;20026;-87
2022/07/07 12:08:07;;;;;;;1.65;1.00;;;22.10;87.30;;;;;;5024121;28;20060;-86
2022/07/07 12:10:39;;;;;;;2.75;0.90;;;22.00;87.10;;;;;;5026906;28;20036;-87
2022/07/07 12:13:07;;;;;;;3.50;1.00;;;21.90;87.60;;;;;;5016780;28;20025;-88
2022/07/07 12:15:42;;;;;;;4.22;1.00;;;22.00;87.70;;;;;;5016125;28;20060;-87
2022/07/07 12:18:10;;;;;;;4.03;1.27;;;22.20;87.40;;;;;;5015232;28;20041;-87
2022/07/07 12:20:37;;;;;;;3.17;1.10;;;22.40;86.20;;;;;;5016615;28;20042;-86
2022/07/07 12:23:05;;;;;;;3.50;1.23;;;22.60;85.60;;;;;;5017057;28;20044;-88
2022/07/07 12:25:33;;;;;;;2.40;1.60;;;22.70;85.10;;;;;;5015371;28;20026;-87
2022/07/07 12:28:07;;;;;;;4.50;1.42;;;22.90;84.30;;;;;;5015492;28;20022;-87
2022/07/07 12:30:35;;;;;;;2.15;1.10;;;23.10;83.60;;;;;;5029036;28;20029;-87
2022/07/07 12:33:02;;;;;;;1.75;0.90;;;23.30;83.40;;;;;;5027721;28;20022;-87
2022/07/07 12:35:35;;;;;;;2.45;1.00;;;23.20;83.80;;;;;;5029433;28;20034;-87
2022/07/07 12:38:03;;;;;;;1.00;0.80;;;23.00;84.00;;;;;;5029340;28;20040;-87
2022/07/07 12:40:31;;;;;;;2.25;1.23;;;22.80;84.50;;;;;;5017310;28;20037;-88
2022/07/07 12:43:03;;;;;;;2.05;0.90;;;22.90;84.00;;;;;;5018121;28;20025;-87
2022/07/07 12:45:30;;;;;;;3.78;0.90;;;23.00;84.50;;;;;;5022086;28;20129;-87
2022/07/07 12:47:55;;;;;;;2.40;0.80;;;23.00;85.00;;;;;;5004219;28;20089;-87